createdAt,value
2023-02-03T00:02:13.230Z,1.92
2023-02-03T00:04:39.517Z,1.87
2023-02-03T00:07:05.761Z,1.83
2023-02-03T00:09:32.060Z,1.89
2023-02-03T00:11:58.302Z,1.85
2023-02-03T00:14:24.567Z,1.77
2023-02-03T00:16:50.822Z,1.78
2023-02-03T00:19:17.728Z,1.86
2023-02-03T00:21:44.064Z,1.78
2023-02-03T00:24:10.320Z,1.81
2023-02-03T00:26:36.576Z,1.65
2023-02-03T00:29:02.821Z,1.59
2023-02-03T00:31:29.131Z,1.52
2023-02-03T00:33:55.469Z,1.64
2023-02-03T00:36:22.317Z,1.92
2023-02-03T00:38:48.598Z,1.80
2023-02-03T00:41:14.849Z,2.01
2023-02-03T00:43:41.097Z,1.97
2023-02-03T00:46:07.430Z,1.83
2023-02-03T00:48:33.687Z,1.92
2023-02-03T00:50:59.924Z,2.01
2023-02-03T00:53:26.169Z,1.84
2023-02-03T00:55:52.459Z,1.84
2023-02-03T00:58:18.742Z,2.16
2023-02-03T01:00:45.136Z,2.07
2023-02-03T01:03:11.467Z,2.05
2023-02-03T01:05:37.719Z,2.10
2023-02-03T01:08:03.987Z,2.18
2023-02-03T01:10:30.244Z,2.18
2023-02-03T01:12:56.480Z,2.27
2023-02-03T01:15:22.737Z,2.15
2023-02-03T01:17:49.000Z,2.31
2023-02-03T01:20:15.298Z,2.10
2023-02-03T01:22:41.564Z,2.21
2023-02-03T01:25:07.830Z,2.09
2023-02-03T01:27:34.128Z,2.09
2023-02-03T01:30:00.416Z,1.89
2023-02-03T01:32:26.690Z,1.82
2023-02-03T01:34:52.969Z,1.96
2023-02-03T01:37:19.209Z,1.98
2023-02-03T01:39:45.522Z,2.24
2023-02-03T01:42:11.776Z,1.79
2023-02-03T01:44:38.014Z,1.75
2023-02-03T01:47:04.268Z,1.88
2023-02-03T01:49:30.526Z,1.80
2023-02-03T01:51:56.784Z,1.73
2023-02-03T01:54:23.063Z,1.77
2023-02-03T01:56:49.335Z,1.83
2023-02-03T01:59:15.642Z,1.84
2023-02-03T02:01:41.971Z,1.68
2023-02-03T02:04:08.230Z,1.67
2023-02-03T02:06:34.493Z,1.70
2023-02-03T02:09:00.755Z,1.79
2023-02-03T02:11:26.998Z,1.80
2023-02-03T02:13:53.268Z,1.61
2023-02-03T02:16:19.586Z,1.61
2023-02-03T02:18:45.888Z,1.64
2023-02-03T02:21:12.128Z,1.56
2023-02-03T02:23:38.380Z,1.55
2023-02-03T02:26:04.635Z,1.58
2023-02-03T02:28:30.872Z,1.56
2023-02-03T02:30:57.223Z,1.44
2023-02-03T02:33:23.528Z,1.63
2023-02-03T02:35:49.802Z,1.61
2023-02-03T02:38:16.159Z,1.62
2023-02-03T02:40:42.408Z,1.50
2023-02-03T02:43:08.648Z,1.41
2023-02-03T02:45:34.908Z,1.38
2023-02-03T02:48:01.163Z,1.41
2023-02-03T02:50:27.705Z,1.33
2023-02-03T02:52:54.147Z,1.42
2023-02-03T02:55:20.412Z,1.31
2023-02-03T02:57:46.680Z,1.32
2023-02-03T03:00:12.955Z,1.22
2023-02-03T03:02:39.224Z,1.15
2023-02-03T03:05:05.546Z,1.35
2023-02-03T03:07:31.855Z,1.48
2023-02-03T03:09:58.141Z,1.47
2023-02-03T03:12:24.415Z,1.30
2023-02-03T03:14:50.667Z,1.43
2023-02-03T03:17:17.011Z,1.55
2023-02-03T03:19:43.256Z,1.66
2023-02-03T03:22:09.514Z,1.69
2023-02-03T03:24:35.771Z,1.97
2023-02-03T03:27:02.021Z,2.19
2023-02-03T03:29:28.262Z,1.75
2023-02-03T03:31:54.579Z,1.58
2023-02-03T03:34:20.898Z,1.61
2023-02-03T03:36:47.162Z,1.68
2023-02-03T03:39:13.533Z,1.70
2023-02-03T03:41:39.796Z,1.55
2023-02-03T03:44:06.043Z,1.57
2023-02-03T03:46:32.336Z,1.48
2023-02-03T03:48:58.655Z,1.38
2023-02-03T03:51:24.910Z,1.53
2023-02-03T03:53:51.367Z,1.55
2023-02-03T03:56:17.615Z,1.54
2023-02-03T03:58:43.861Z,1.40
2023-02-03T04:01:10.173Z,1.37
2023-02-03T04:03:36.454Z,1.48
2023-02-03T04:06:02.745Z,1.50
2023-02-03T04:08:29.021Z,1.54
2023-02-03T04:10:55.274Z,1.62
2023-02-03T04:13:21.513Z,1.91
2023-02-03T04:15:47.807Z,1.71
2023-02-03T04:18:14.102Z,1.66
2023-02-03T04:20:40.350Z,1.51
2023-02-03T04:23:06.632Z,1.47
2023-02-03T04:25:32.928Z,1.73
2023-02-03T04:27:59.245Z,1.54
2023-02-03T04:30:26.014Z,1.65
2023-02-03T04:32:52.443Z,1.48
2023-02-03T04:35:18.716Z,1.58
2023-02-03T04:37:45.017Z,1.64
2023-02-03T04:40:11.291Z,1.70
2023-02-03T04:42:37.550Z,1.59
2023-02-03T04:45:03.819Z,1.57
2023-02-03T04:47:30.060Z,1.68
2023-02-03T04:49:56.303Z,1.71
2023-02-03T04:52:22.565Z,1.64
2023-02-03T04:54:48.935Z,1.86
2023-02-03T04:57:15.189Z,1.68
2023-02-03T04:59:41.440Z,1.56
2023-02-03T05:02:07.718Z,1.58
2023-02-03T05:04:33.982Z,1.44
2023-02-03T05:07:00.253Z,1.54
2023-02-03T05:09:26.504Z,1.49
2023-02-03T05:11:52.760Z,1.40
2023-02-03T05:14:19.026Z,1.41
2023-02-03T05:16:46.378Z,1.44
2023-02-03T05:19:12.828Z,1.47
2023-02-03T05:21:39.105Z,1.47
2023-02-03T05:24:05.359Z,1.38
2023-02-03T05:26:31.600Z,1.64
2023-02-03T05:28:57.906Z,1.59
2023-02-03T05:31:24.228Z,1.36
2023-02-03T05:33:50.624Z,1.38
2023-02-03T05:36:16.887Z,1.43
2023-02-03T05:38:43.133Z,1.49
2023-02-03T05:41:09.407Z,1.46
2023-02-03T05:43:35.683Z,1.50
2023-02-03T05:46:02.027Z,1.45
2023-02-03T05:48:28.515Z,1.41
2023-02-03T05:50:54.796Z,1.42
2023-02-03T05:53:21.040Z,1.42
2023-02-03T05:55:47.294Z,1.47
2023-02-03T05:58:13.573Z,1.44
2023-02-03T06:00:39.837Z,1.35
2023-02-03T06:03:06.096Z,1.43
2023-02-03T06:05:32.359Z,1.46
2023-02-03T06:07:58.644Z,1.45
2023-02-03T06:10:25.080Z,1.49
2023-02-03T06:12:51.465Z,1.80
2023-02-03T06:15:17.734Z,1.90
2023-02-03T06:17:43.993Z,2.62
2023-02-03T06:20:10.268Z,2.72
2023-02-03T06:22:36.524Z,1.87
2023-02-03T06:25:02.811Z,1.65
2023-02-03T06:27:29.049Z,1.53
2023-02-03T06:29:55.413Z,1.82
2023-02-03T06:32:21.653Z,1.82
2023-02-03T06:34:47.881Z,1.88
2023-02-03T06:37:14.140Z,1.89
2023-02-03T06:39:40.383Z,2.10
2023-02-03T06:42:06.640Z,2.14
2023-02-03T06:44:32.899Z,2.18
2023-02-03T06:46:59.152Z,2.45
2023-02-03T06:49:25.423Z,2.25
2023-02-03T06:51:51.666Z,2.32
2023-02-03T06:54:17.910Z,2.02
2023-02-03T06:56:44.166Z,2.38
2023-02-03T06:59:10.517Z,2.48
2023-02-03T07:01:36.815Z,2.64
2023-02-03T07:04:03.257Z,2.75
2023-02-03T07:06:29.496Z,2.79
2023-02-03T07:08:55.761Z,3.16
2023-02-03T07:11:22.020Z,3.65
2023-02-03T07:13:48.293Z,3.30
2023-02-03T07:16:14.637Z,2.82
2023-02-03T07:18:47.329Z,3.40
2023-02-03T07:21:14.394Z,4.13
2023-02-03T07:23:40.643Z,4.18
2023-02-03T07:26:06.877Z,4.00
2023-02-03T07:28:33.140Z,3.61
2023-02-03T07:30:59.511Z,3.08
2023-02-03T07:33:25.815Z,3.04
2023-02-03T07:35:52.064Z,2.86
2023-02-03T07:38:18.335Z,2.60
2023-02-03T07:40:44.688Z,2.30
2023-02-03T07:43:10.934Z,2.54
2023-02-03T07:45:37.201Z,2.43
2023-02-03T07:48:03.454Z,2.50
2023-02-03T07:50:29.986Z,2.47
2023-02-03T07:52:56.439Z,2.18
2023-02-03T07:55:22.684Z,2.43
2023-02-03T07:57:48.969Z,2.51
2023-02-03T08:00:15.233Z,2.35
2023-02-03T08:02:41.480Z,2.28
2023-02-03T08:05:07.746Z,2.22
2023-02-03T08:07:34.020Z,2.17
2023-02-03T08:10:00.289Z,2.29
2023-02-03T08:12:26.538Z,2.25
2023-02-03T08:14:52.820Z,2.39
2023-02-03T08:17:19.068Z,2.29
2023-02-03T08:19:45.327Z,2.11
2023-02-03T08:22:11.573Z,2.33
2023-02-03T08:24:37.805Z,2.23
2023-02-03T08:27:04.066Z,2.30
2023-02-03T08:29:30.313Z,2.22
2023-02-03T08:31:56.621Z,2.00
2023-02-03T08:34:22.910Z,2.05
2023-02-03T08:36:49.180Z,1.81
2023-02-03T08:39:15.422Z,1.80
2023-02-03T08:41:41.680Z,1.87
2023-02-03T08:44:08.073Z,1.56
2023-02-03T08:46:34.361Z,1.74
2023-02-03T08:49:00.621Z,1.93
2023-02-03T08:51:26.894Z,1.92
2023-02-03T08:53:53.164Z,1.64
2023-02-03T08:56:19.404Z,1.70
2023-02-03T08:58:45.727Z,1.61
2023-02-03T09:01:12.015Z,1.70
2023-02-03T09:03:38.330Z,1.55
2023-02-03T09:06:04.574Z,1.57
2023-02-03T09:08:30.825Z,1.63
2023-02-03T09:10:57.115Z,1.60
2023-02-03T09:13:23.361Z,1.57
2023-02-03T09:15:49.597Z,1.61
2023-02-03T09:18:15.869Z,1.87
2023-02-03T09:20:42.253Z,1.48
2023-02-03T09:23:08.620Z,1.53
2023-02-03T09:25:34.884Z,1.44
2023-02-03T09:28:01.212Z,1.49
2023-02-03T09:30:27.962Z,1.67
2023-02-03T09:32:54.464Z,1.49
2023-02-03T09:35:20.761Z,1.44
2023-02-03T09:37:47.057Z,1.26
2023-02-03T09:40:13.292Z,1.13
2023-02-03T09:42:39.533Z,1.30
2023-02-03T09:45:05.795Z,1.37
2023-02-03T09:47:32.041Z,1.18
2023-02-03T09:49:58.303Z,1.44
2023-02-03T09:52:24.558Z,1.59
2023-02-03T09:54:50.812Z,1.60
2023-02-03T09:57:17.198Z,1.70
2023-02-03T09:59:43.452Z,1.78
2023-02-03T10:02:09.743Z,1.96
2023-02-03T10:04:36.053Z,1.90
2023-02-03T10:07:02.297Z,1.84
2023-02-03T10:09:28.596Z,1.79
2023-02-03T10:11:54.851Z,1.60
2023-02-03T10:14:21.120Z,1.51
2023-02-03T10:16:47.393Z,1.46
2023-02-03T10:19:13.671Z,1.24
2023-02-03T10:21:39.916Z,1.19
2023-02-03T10:24:06.171Z,1.40
2023-02-03T10:26:32.428Z,1.50
2023-02-03T10:28:58.747Z,1.52
2023-02-03T10:31:25.107Z,1.79
2023-02-03T10:33:51.428Z,1.91
2023-02-03T10:36:17.677Z,1.74
2023-02-03T10:38:43.929Z,1.55
2023-02-03T10:41:10.320Z,1.47
2023-02-03T10:43:36.652Z,1.42
2023-02-03T10:46:02.974Z,1.52
2023-02-03T10:48:29.243Z,1.37
2023-02-03T10:50:55.509Z,1.37
2023-02-03T10:53:21.810Z,1.29
2023-02-03T10:55:48.069Z,1.23
2023-02-03T10:58:14.319Z,1.27
2023-02-03T11:00:40.585Z,1.35
2023-02-03T11:03:06.846Z,1.08
2023-02-03T11:05:33.085Z,1.10
2023-02-03T11:07:59.502Z,1.98
2023-02-03T11:10:26.098Z,1.43
2023-02-03T11:12:52.560Z,2.82
2023-02-03T11:15:18.825Z,2.27
2023-02-03T11:17:45.081Z,1.33
2023-02-03T11:20:11.358Z,1.50
2023-02-03T11:22:37.596Z,1.56
2023-02-03T11:25:03.869Z,1.38
2023-02-03T11:27:30.178Z,2.27
2023-02-03T11:29:56.436Z,2.09
2023-02-03T11:32:22.712Z,1.80
2023-02-03T11:34:48.969Z,1.86
2023-02-03T11:37:15.236Z,1.10
2023-02-03T11:39:41.485Z,1.02
2023-02-03T11:42:07.721Z,1.13
2023-02-03T11:44:33.984Z,1.03
2023-02-03T11:47:00.248Z,0.89
2023-02-03T11:49:26.555Z,0.96
2023-02-03T11:51:52.799Z,1.02
2023-02-03T11:54:19.162Z,1.02
2023-02-03T11:56:45.415Z,0.99
2023-02-03T11:59:11.671Z,1.00
2023-02-03T12:01:37.924Z,1.11
2023-02-03T12:04:04.239Z,1.03
2023-02-03T12:06:30.529Z,1.08
2023-02-03T12:08:56.769Z,1.37
2023-02-03T12:11:24.035Z,1.35
2023-02-03T12:13:50.384Z,1.45
2023-02-03T12:16:16.686Z,1.49
2023-02-03T12:18:42.989Z,1.52
2023-02-03T12:21:09.244Z,1.61
2023-02-03T12:23:35.514Z,1.46
2023-02-03T12:26:01.785Z,1.71
2023-02-03T12:28:33.625Z,1.90
2023-02-03T12:31:00.672Z,1.76
2023-02-03T12:33:26.997Z,1.96
2023-02-03T12:35:53.266Z,1.99
2023-02-03T12:38:19.534Z,2.11
2023-02-03T12:40:47.666Z,2.36
2023-02-03T12:43:15.172Z,2.23
2023-02-03T12:45:41.465Z,2.02
2023-02-03T12:48:07.745Z,2.15
2023-02-03T12:50:33.981Z,2.09
2023-02-03T12:53:00.220Z,2.02
2023-02-03T12:55:26.464Z,2.22
2023-02-03T12:57:52.721Z,2.24
2023-02-03T13:00:18.965Z,2.43
2023-02-03T13:02:45.218Z,2.29
2023-02-03T13:05:11.466Z,2.18
2023-02-03T13:07:37.705Z,2.52
2023-02-03T13:10:03.959Z,2.45
2023-02-03T13:12:30.309Z,2.57
2023-02-03T13:14:56.563Z,2.45
2023-02-03T13:17:22.804Z,2.54
2023-02-03T13:19:49.056Z,2.58
2023-02-03T13:22:15.307Z,2.55
2023-02-03T13:24:41.549Z,2.56
2023-02-03T13:27:07.816Z,2.55
2023-02-03T13:29:34.058Z,2.58
2023-02-03T13:32:00.476Z,2.50
2023-02-03T13:34:26.768Z,2.65
2023-02-03T13:36:53.026Z,2.77
2023-02-03T13:39:19.289Z,2.79
2023-02-03T13:41:45.551Z,2.56
2023-02-03T13:44:11.797Z,2.54
2023-02-03T13:46:38.152Z,2.74
2023-02-03T13:49:04.416Z,2.89
2023-02-03T13:51:30.679Z,2.64
2023-02-03T13:53:56.950Z,2.70
2023-02-03T13:56:23.221Z,2.79
2023-02-03T13:58:50.681Z,2.60
2023-02-03T14:01:18.081Z,2.71
2023-02-03T14:03:44.391Z,2.61
2023-02-03T14:06:10.662Z,2.78
2023-02-03T14:08:36.917Z,2.69
2023-02-03T14:11:03.182Z,2.76
2023-02-03T14:13:29.442Z,3.14
2023-02-03T14:15:55.714Z,3.37
2023-02-03T14:18:21.967Z,3.18
2023-02-03T14:20:48.274Z,3.33
2023-02-03T14:23:14.513Z,3.14
2023-02-03T14:25:40.772Z,2.88
2023-02-03T14:28:07.081Z,2.60
2023-02-03T14:30:33.429Z,2.71
2023-02-03T14:32:59.694Z,2.48
2023-02-03T14:35:26.091Z,2.68
2023-02-03T14:37:52.456Z,2.73
2023-02-03T14:40:18.715Z,2.79
2023-02-03T14:42:44.957Z,2.07
2023-02-03T14:45:11.200Z,1.88
2023-02-03T14:47:37.488Z,2.17
2023-02-03T14:50:03.757Z,2.45
2023-02-03T14:52:30.011Z,2.55
2023-02-03T14:54:56.269Z,2.34
2023-02-03T14:57:22.528Z,2.02
2023-02-03T14:59:48.769Z,1.93
2023-02-03T15:02:15.059Z,2.05
2023-02-03T15:04:41.339Z,2.37
2023-02-03T15:07:07.592Z,2.29
2023-02-03T15:09:33.848Z,2.31
2023-02-03T15:12:00.133Z,2.13
2023-02-03T15:14:26.390Z,1.81
2023-02-03T15:16:52.679Z,1.43
2023-02-03T15:19:19.025Z,1.09
2023-02-03T15:21:45.261Z,1.13
2023-02-03T15:24:11.512Z,1.12
2023-02-03T15:26:37.868Z,1.08
2023-02-03T15:29:04.123Z,1.04
2023-02-03T15:31:30.457Z,1.13
2023-02-03T15:33:56.726Z,1.02
2023-02-03T15:36:22.958Z,1.06
2023-02-03T15:38:49.214Z,1.25
2023-02-03T15:41:15.463Z,1.13
2023-02-03T15:43:41.697Z,1.06
2023-02-03T15:46:07.974Z,1.17
2023-02-03T15:48:34.243Z,1.12
2023-02-03T15:51:00.521Z,1.07
2023-02-03T15:53:34.429Z,1.02
2023-02-03T15:56:04.003Z,1.15
2023-02-03T15:58:30.260Z,1.14
2023-02-03T16:00:56.503Z,1.21
2023-02-03T16:03:22.871Z,1.32
2023-02-03T16:05:49.271Z,1.28
2023-02-03T16:08:15.543Z,1.37
2023-02-03T16:10:41.808Z,1.45
2023-02-03T16:13:08.061Z,1.76
2023-02-03T16:15:34.320Z,2.57
2023-02-03T16:18:00.582Z,4.12
2023-02-03T16:20:26.868Z,3.60
2023-02-03T16:22:53.136Z,3.05
2023-02-03T16:25:19.390Z,2.37
2023-02-03T16:27:45.775Z,1.94
2023-02-03T16:30:12.200Z,1.89
2023-02-03T16:32:38.465Z,1.80
2023-02-03T16:35:04.708Z,1.94
2023-02-03T16:37:30.957Z,1.93
2023-02-03T16:39:57.210Z,1.87
2023-02-03T16:42:23.445Z,2.07
2023-02-03T16:44:49.702Z,2.14
2023-02-03T16:47:15.979Z,2.14
2023-02-03T16:49:42.249Z,1.93
2023-02-03T16:52:08.519Z,2.00
2023-02-03T16:54:34.775Z,2.03
2023-02-03T16:57:01.054Z,1.99
2023-02-03T16:59:27.304Z,1.90
2023-02-03T17:01:53.605Z,1.94
2023-02-03T17:04:19.849Z,2.30
2023-02-03T17:06:46.103Z,2.47
2023-02-03T17:09:12.364Z,2.92
2023-02-03T17:11:38.606Z,3.55
2023-02-03T17:14:04.847Z,4.33
2023-02-03T17:16:31.153Z,5.39
2023-02-03T17:18:57.424Z,7.58
2023-02-03T17:21:23.700Z,9.85
2023-02-03T17:23:49.956Z,10.93
2023-02-03T17:26:16.241Z,9.66
2023-02-03T17:28:42.495Z,9.88
2023-02-03T17:31:08.818Z,9.74
2023-02-03T17:33:35.069Z,8.41
2023-02-03T17:36:01.309Z,5.85
2023-02-03T17:38:27.672Z,3.08
2023-02-03T17:54:33.892Z,2.60
2023-02-03T17:57:00.137Z,2.46
2023-02-03T17:59:26.396Z,2.38
2023-02-03T18:01:52.632Z,2.49
2023-02-03T18:04:18.884Z,2.30
2023-02-03T18:06:45.143Z,2.53
2023-02-03T18:09:11.381Z,2.89
2023-02-03T18:11:37.622Z,2.63
2023-02-03T18:14:03.855Z,2.95
2023-02-03T18:46:11.818Z,3.41
2023-02-03T18:48:38.068Z,3.45
2023-02-03T18:51:04.317Z,3.35
2023-02-03T18:53:30.562Z,3.40
2023-02-03T18:55:56.792Z,4.77
2023-02-03T18:58:23.042Z,5.80
2023-02-03T19:00:49.277Z,5.21
2023-02-03T19:03:15.533Z,4.26
2023-02-03T19:05:41.792Z,3.79
2023-02-03T19:08:08.093Z,3.53
2023-02-03T19:10:34.356Z,3.45
2023-02-03T19:13:00.633Z,3.31
2023-02-03T19:15:26.909Z,3.19
2023-02-03T19:17:53.162Z,2.96
2023-02-03T19:20:19.441Z,3.00
2023-02-03T19:22:45.712Z,3.26
2023-02-03T19:25:11.968Z,3.30
2023-02-03T19:27:38.266Z,3.73
2023-02-03T19:30:04.622Z,3.72
2023-02-03T19:32:30.888Z,3.40
2023-02-03T19:34:57.127Z,3.57
2023-02-03T19:37:23.393Z,3.43
2023-02-03T19:39:49.645Z,3.48
2023-02-03T19:42:15.903Z,3.68
2023-02-03T19:44:42.174Z,3.59
2023-02-03T19:47:08.434Z,3.80
2023-02-03T19:49:34.676Z,3.45
2023-02-03T19:52:00.934Z,3.22
2023-02-03T19:54:27.185Z,3.21
2023-02-03T19:56:53.439Z,3.33
2023-02-03T19:59:19.676Z,3.16
2023-02-03T20:01:46.132Z,3.42
2023-02-03T20:04:12.409Z,3.33
2023-02-03T20:06:38.647Z,3.02
2023-02-03T20:09:04.905Z,2.82
2023-02-03T20:11:31.165Z,2.66
2023-02-03T20:13:57.445Z,2.65
2023-02-03T20:16:23.713Z,2.54
2023-02-03T20:18:49.959Z,2.65
2023-02-03T20:21:16.224Z,2.56
2023-02-03T20:23:42.504Z,2.59
2023-02-03T20:26:08.741Z,2.43
2023-02-03T20:28:35.001Z,2.44
2023-02-03T20:31:01.421Z,2.50
2023-02-03T20:33:27.954Z,2.47
2023-02-03T20:35:54.217Z,2.53
2023-02-03T20:38:20.476Z,3.68
2023-02-03T20:40:46.723Z,9.37
2023-02-03T20:43:12.962Z,11.31
2023-02-03T20:45:39.244Z,13.91
2023-02-03T20:48:05.511Z,17.11
2023-02-03T20:50:41.731Z,15.10
2023-02-03T20:53:08.666Z,12.66
2023-02-03T20:55:34.910Z,8.51
2023-02-03T20:58:01.176Z,7.10
2023-02-03T21:00:27.864Z,4.99
2023-02-03T21:02:54.274Z,3.75
2023-02-03T21:05:20.560Z,3.34
2023-02-03T21:07:46.816Z,3.46
2023-02-03T21:10:13.047Z,3.43
2023-02-03T21:12:39.322Z,2.77
2023-02-03T21:15:05.582Z,2.46
2023-02-03T21:17:31.842Z,2.82
2023-02-03T21:19:58.115Z,2.26
2023-02-03T21:22:24.385Z,2.34
2023-02-03T21:24:50.658Z,2.50
2023-02-03T21:27:16.897Z,2.88
2023-02-03T21:29:43.157Z,2.90
2023-02-03T21:32:09.402Z,2.69
2023-02-03T21:34:35.668Z,2.37
2023-02-03T21:37:01.906Z,2.25
2023-02-03T21:39:28.166Z,2.15
2023-02-03T21:41:54.427Z,2.27
2023-02-03T21:44:20.663Z,2.12
2023-02-03T21:46:46.933Z,1.98
2023-02-03T21:49:13.176Z,2.21
2023-02-03T21:51:39.417Z,2.27
2023-02-03T21:54:05.682Z,2.25
2023-02-03T21:56:31.975Z,2.20
2023-02-03T21:58:58.285Z,2.25
2023-02-03T22:01:24.578Z,2.17
2023-02-03T22:03:50.860Z,1.99
2023-02-03T22:06:17.099Z,2.03
2023-02-03T22:08:43.348Z,1.97
2023-02-03T22:11:09.712Z,2.08
2023-02-03T22:13:35.959Z,1.79
2023-02-03T22:16:02.209Z,1.71
2023-02-03T22:18:28.467Z,1.63
2023-02-03T22:20:54.741Z,1.60
2023-02-03T22:23:20.985Z,1.51
2023-02-03T22:25:47.233Z,1.43
2023-02-03T22:28:13.527Z,1.53
2023-02-03T22:30:39.886Z,1.46
2023-02-03T22:33:06.168Z,1.50
2023-02-03T22:35:32.435Z,1.60
2023-02-03T22:37:58.707Z,1.79
2023-02-03T22:40:24.972Z,1.77
2023-02-03T22:42:51.229Z,1.79
2023-02-03T22:45:17.502Z,1.66
2023-02-03T22:47:43.765Z,1.67
2023-02-03T22:50:10.009Z,1.62
2023-02-03T22:52:36.250Z,1.77
2023-02-03T22:55:02.493Z,1.52
2023-02-03T22:57:28.741Z,1.59
2023-02-03T22:59:55.001Z,1.58
2023-02-03T23:02:21.247Z,1.47
2023-02-03T23:04:47.529Z,1.60
2023-02-03T23:07:13.805Z,1.48
2023-02-03T23:09:40.125Z,1.62
2023-02-03T23:12:06.370Z,1.67
2023-02-03T23:14:32.633Z,1.61
2023-02-03T23:16:58.903Z,1.87
2023-02-03T23:19:25.177Z,2.09
2023-02-03T23:21:51.435Z,1.91
2023-02-03T23:24:17.708Z,1.81
2023-02-03T23:26:43.950Z,1.85
2023-02-03T23:29:10.190Z,1.83
2023-02-03T23:31:36.514Z,1.88
2023-02-03T23:34:02.805Z,1.90
2023-02-03T23:36:29.058Z,2.08
2023-02-03T23:38:55.317Z,2.10
2023-02-03T23:41:21.583Z,2.01
2023-02-03T23:43:47.824Z,1.87
2023-02-03T23:46:14.135Z,1.56
2023-02-03T23:48:40.411Z,1.34
2023-02-03T23:51:06.673Z,1.33
2023-02-03T23:53:32.906Z,1.18
2023-02-03T23:55:59.160Z,1.19
2023-02-03T23:58:25.417Z,1.17
